Time;durP1;ratioP1;P1;durP2;ratioP2;P2;SDS_P1;SDS_P2;PMS_P1;PMS_P2;Temp;Humidity;BMP_temperature;BMP_pressure;BME280_temperature;BME280_humidity;BME280_pressure;Samples;Min_cycle;Max_cycle;Signal;HPM_P1;HPM_P2
2022/10/14 00:01:59;;;;;;;13.47;8.70;;;;;;;;;;5032358;28;20611;-82
2022/10/14 00:04:28;;;;;;;13.87;9.20;;;;;;;;;;5016617;28;20586;-83
2022/10/14 00:06:56;;;;;;;14.83;9.73;;;;;;;;;;5012611;28;20267;-82
2022/10/14 00:09:23;;;;;;;15.20;9.60;;;;;;;;;;5011974;28;20238;-83
2022/10/14 00:11:50;;;;;;;11.73;8.70;;;;;;;;;;5012126;28;20226;-82
2022/10/14 00:14:18;;;;;;;11.97;7.93;;;;;;;;;;5011718;28;20239;-83
2022/10/14 00:16:45;;;;;;;9.70;7.90;;;;;;;;;;5012169;28;20218;-82
2022/10/14 00:19:13;;;;;;;11.87;8.43;;;;;;;;;;5011399;28;20246;-82
2022/10/14 00:21:43;;;;;;;10.30;7.60;;;;;;;;;;5027746;28;20227;-83
2022/10/14 00:24:11;;;;;;;13.17;8.20;;;;;;;;;;5031447;28;20233;-83
2022/10/14 00:26:39;;;;;;;10.23;9.13;;;;;;;;;;5031613;28;20710;-82
2022/10/14 00:29:08;;;;;;;11.00;8.23;;;;;;;;;;5031152;28;20234;-82
2022/10/14 00:31:36;;;;;;;10.43;8.30;;;;;;;;;;5031804;28;20730;-83
2022/10/14 00:34:03;;;;;;;13.70;8.73;;;;;;;;;;5031334;28;20238;-83
2022/10/14 00:36:30;;;;;;;14.00;8.43;;;;;;;;;;5031651;28;20203;-83
2022/10/14 00:38:58;;;;;;;13.00;8.33;;;;;;;;;;5031033;28;20728;-82
2022/10/14 00:41:27;;;;;;;12.40;9.23;;;;;;;;;;5031555;28;20219;-82
2022/10/14 00:43:56;;;;;;;11.73;8.40;;;;;;;;;;5031318;28;20234;-82
2022/10/14 00:46:24;;;;;;;14.77;9.27;;;;;;;;;;5035454;28;20601;-82
2022/10/14 00:48:51;;;;;;;11.33;9.30;;;;;;;;;;5024930;28;20253;-82
2022/10/14 00:51:19;;;;;;;11.50;9.20;;;;;;;;;;5015870;28;20622;-83
2022/10/14 00:53:47;;;;;;;12.23;9.50;;;;;;;;;;5015650;28;20238;-83
2022/10/14 00:56:16;;;;;;;11.77;9.70;;;;;;;;;;5015706;28;20199;-82
2022/10/14 00:58:44;;;;;;;18.87;11.20;;;;;;;;;;5015192;28;20239;-82
2022/10/14 01:01:11;;;;;;;14.90;11.03;;;;;;;;;;5015841;28;20227;-82
2022/10/14 01:03:38;;;;;;;15.93;11.10;;;;;;;;;;5031175;28;20265;-82
2022/10/14 01:06:11;;;;;;;13.03;10.60;;;;;;;;;;5023923;28;20569;-82
2022/10/14 01:08:41;;;;;;;16.17;11.10;;;;;;;;;;5034658;28;20238;-83
2022/10/14 01:11:10;;;;;;;14.77;11.13;;;;;;;;;;5035517;28;20223;-82
2022/10/14 01:13:41;;;;;;;14.80;11.40;;;;;;;;;;5034774;28;20238;-81
2022/10/14 01:16:14;;;;;;;18.23;13.03;;;;;;;;;;5015686;28;20204;-82
2022/10/14 01:21:46;;;;;;;17.33;12.37;;;;;;;;;;5029632;28;20235;-82
2022/10/14 01:24:34;;;;;;;19.47;12.87;;;;;;;;;;5035018;28;20258;-83
2022/10/14 01:27:19;;;;;;;18.73;12.40;;;;;;;;;;5034489;28;20732;-82
2022/10/14 01:30:01;;;;;;;16.93;12.10;;;;;;;;;;5035058;28;20195;-81
2022/10/14 01:32:30;;;;;;;16.23;11.50;;;;;;;;;;5034422;28;20268;-82
2022/10/14 01:35:02;;;;;;;16.87;11.10;;;;;;;;;;5024999;28;20222;-83
2022/10/14 01:37:30;;;;;;;20.67;12.10;;;;;;;;;;5014481;28;20223;-82
2022/10/14 01:40:00;;;;;;;15.07;10.83;;;;;;;;;;5015093;28;20204;-82
2022/10/14 01:42:28;;;;;;;14.53;11.43;;;;;;;;;;5014213;28;20235;-82
2022/10/14 01:44:59;;;;;;;16.23;12.17;;;;;;;;;;5015133;28;20203;-83
2022/10/14 01:47:30;;;;;;;16.83;12.50;;;;;;;;;;5014329;28;20230;-82
2022/10/14 01:49:58;;;;;;;12.27;10.97;;;;;;;;;;5015084;28;20195;-82
2022/10/14 01:52:28;;;;;;;13.90;10.53;;;;;;;;;;5014157;28;20242;-82
2022/10/14 01:54:57;;;;;;;15.53;11.43;;;;;;;;;;5014799;28;20283;-82
2022/10/14 01:57:26;;;;;;;14.63;11.10;;;;;;;;;;5028092;28;20238;-82
2022/10/14 01:59:54;;;;;;;17.50;11.43;;;;;;;;;;5034433;28;20206;-82
2022/10/14 02:02:21;;;;;;;18.83;10.97;;;;;;;;;;5033921;28;20243;-82
2022/10/14 02:04:49;;;;;;;14.80;11.13;;;;;;;;;;5034427;28;20218;-82
2022/10/14 02:07:20;;;;;;;13.47;10.33;;;;;;;;;;5033708;28;20592;-82
2022/10/14 02:09:52;;;;;;;13.17;11.33;;;;;;;;;;5033919;28;20194;-83
2022/10/14 02:12:26;;;;;;;13.23;10.37;;;;;;;;;;5033664;28;20230;-82
2022/10/14 02:14:58;;;;;;;14.47;11.33;;;;;;;;;;5034707;28;20197;-82
2022/10/14 02:17:28;;;;;;;16.20;10.97;;;;;;;;;;5033672;28;20230;-82
2022/10/14 02:19:58;;;;;;;14.30;12.00;;;;;;;;;;5034267;28;20194;-82
2022/10/14 02:22:27;;;;;;;16.57;11.57;;;;;;;;;;5033506;28;20238;-81
2022/10/14 02:24:56;;;;;;;14.63;11.13;;;;;;;;;;5033945;28;20191;-82
2022/10/14 02:27:25;;;;;;;15.00;11.20;;;;;;;;;;5033264;28;20606;-83
2022/10/14 02:29:54;;;;;;;19.83;11.60;;;;;;;;;;5033787;28;20207;-82
2022/10/14 02:32:22;;;;;;;15.33;11.20;;;;;;;;;;5033140;28;20235;-83
2022/10/14 02:34:51;;;;;;;15.20;10.77;;;;;;;;;;5034064;28;20219;-82
2022/10/14 02:37:20;;;;;;;13.83;10.00;;;;;;;;;;5033312;28;20230;-82
2022/10/14 02:39:56;;;;;;;12.23;10.00;;;;;;;;;;5016039;28;20199;-82
2022/10/14 02:42:23;;;;;;;13.37;10.17;;;;;;;;;;5013272;28;20710;-82
2022/10/14 02:44:54;;;;;;;15.90;10.43;;;;;;;;;;5013530;28;20606;-82
2022/10/14 02:47:21;;;;;;;17.87;11.37;;;;;;;;;;5013420;28;20242;-82
2022/10/14 02:49:48;;;;;;;16.70;11.47;;;;;;;;;;5013871;28;20694;-82
2022/10/14 02:52:16;;;;;;;16.97;11.70;;;;;;;;;;5013212;28;20234;-83
2022/10/14 02:54:44;;;;;;;15.63;11.27;;;;;;;;;;5013744;28;20571;-82
2022/10/14 02:57:12;;;;;;;14.10;11.10;;;;;;;;;;5013705;28;20218;-82
2022/10/14 02:59:39;;;;;;;20.13;12.27;;;;;;;;;;5013788;28;20207;-83
2022/10/14 03:02:07;;;;;;;15.00;11.30;;;;;;;;;;5013282;28;20778;-82
2022/10/14 03:04:34;;;;;;;22.87;11.67;;;;;;;;;;5013533;28;20203;-83
2022/10/14 03:07:01;;;;;;;14.40;10.27;;;;;;;;;;5024764;28;20605;-82
2022/10/14 03:09:28;;;;;;;17.03;11.47;;;;;;;;;;5033227;28;20210;-83
2022/10/14 03:11:56;;;;;;;13.27;10.60;;;;;;;;;;5033463;28;20227;-82
2022/10/14 03:14:23;;;;;;;16.87;10.87;;;;;;;;;;5033122;28;20223;-82
2022/10/14 03:16:50;;;;;;;14.60;11.37;;;;;;;;;;5033239;28;20210;-82
2022/10/14 03:19:18;;;;;;;13.60;10.37;;;;;;;;;;5032401;28;20593;-82
2022/10/14 03:21:45;;;;;;;14.33;11.13;;;;;;;;;;5032102;28;20230;-82
2022/10/14 03:24:12;;;;;;;14.73;9.73;;;;;;;;;;5034654;28;20610;-82
2022/10/14 03:26:39;;;;;;;13.63;10.43;;;;;;;;;;5033664;28;20206;-82
2022/10/14 03:29:08;;;;;;;12.37;10.10;;;;;;;;;;5032195;28;20246;-81
2022/10/14 03:31:35;;;;;;;15.50;9.67;;;;;;;;;;5019607;28;20239;-82
2022/10/14 03:34:02;;;;;;;17.50;10.50;;;;;;;;;;5017000;28;20227;-82
2022/10/14 03:36:29;;;;;;;16.20;11.07;;;;;;;;;;5033091;28;20211;-82
2022/10/14 03:38:56;;;;;;;15.30;10.27;;;;;;;;;;5032464;28;20241;-81
2022/10/14 03:41:23;;;;;;;14.90;9.50;;;;;;;;;;5031431;28;20223;-82
2022/10/14 03:43:50;;;;;;;14.20;9.10;;;;;;;;;;5033062;28;20234;-81
2022/10/14 03:46:19;;;;;;;15.77;9.70;;;;;;;;;;5032486;28;20206;-82
2022/10/14 03:48:46;;;;;;;11.37;9.43;;;;;;;;;;5030175;28;20236;-82
2022/10/14 03:51:13;;;;;;;14.67;9.93;;;;;;;;;;5032585;28;20234;-82
2022/10/14 03:53:40;;;;;;;11.90;9.63;;;;;;;;;;5031943;28;20234;-82
2022/10/14 03:56:07;;;;;;;13.47;9.27;;;;;;;;;;5032472;28;20209;-82
2022/10/14 03:58:34;;;;;;;13.27;10.40;;;;;;;;;;5022182;28;20231;-82
2022/10/14 04:01:01;;;;;;;14.53;9.30;;;;;;;;;;5019293;28;20717;-82
2022/10/14 04:03:30;;;;;;;11.80;9.47;;;;;;;;;;5031292;28;20245;-82
2022/10/14 04:05:57;;;;;;;13.60;9.67;;;;;;;;;;5032243;28;20202;-82
2022/10/14 04:08:24;;;;;;;14.33;9.90;;;;;;;;;;5031990;28;20253;-82
2022/10/14 04:10:54;;;;;;;13.10;9.40;;;;;;;;;;5032333;28;20226;-82
2022/10/14 04:13:21;;;;;;;13.57;8.87;;;;;;;;;;5031778;28;20226;-81
2022/10/14 04:15:49;;;;;;;15.13;9.20;;;;;;;;;;5030935;28;20638;-81
2022/10/14 04:18:16;;;;;;;9.80;8.27;;;;;;;;;;5031264;28;20238;-81
2022/10/14 04:20:44;;;;;;;10.20;7.93;;;;;;;;;;5031628;28;20231;-81
2022/10/14 04:23:11;;;;;;;9.30;8.30;;;;;;;;;;5031787;28;20241;-81
2022/10/14 04:25:39;;;;;;;10.13;7.90;;;;;;;;;;5031306;28;20220;-81
2022/10/14 04:28:06;;;;;;;11.07;8.80;;;;;;;;;;5013336;28;20613;-81
2022/10/14 04:30:33;;;;;;;12.30;8.17;;;;;;;;;;5012607;28;20227;-81
2022/10/14 04:33:00;;;;;;;11.03;8.17;;;;;;;;;;5013070;28;20707;-82
2022/10/14 04:35:28;;;;;;;8.67;7.77;;;;;;;;;;5034971;28;20221;-82
2022/10/14 04:37:57;;;;;;;9.50;7.13;;;;;;;;;;5033834;28;20245;-82
2022/10/14 04:40:25;;;;;;;11.20;8.93;;;;;;;;;;5032242;28;20330;-82
2022/10/14 04:42:55;;;;;;;10.30;8.50;;;;;;;;;;5032942;28;20238;-82
2022/10/14 04:45:22;;;;;;;11.20;8.67;;;;;;;;;;5031594;28;20257;-82
2022/10/14 04:47:49;;;;;;;9.13;8.23;;;;;;;;;;5031052;28;20321;-82
2022/10/14 04:50:16;;;;;;;10.03;7.90;;;;;;;;;;5031794;28;20297;-82
2022/10/14 04:52:43;;;;;;;10.60;8.97;;;;;;;;;;5027354;28;20234;-81
2022/10/14 04:55:12;;;;;;;11.27;8.93;;;;;;;;;;5012154;28;20208;-82
2022/10/14 04:57:42;;;;;;;11.93;8.40;;;;;;;;;;5029236;28;20231;-83
2022/10/14 05:00:10;;;;;;;9.93;7.90;;;;;;;;;;5018283;28;20205;-81
2022/10/14 05:02:38;;;;;;;10.97;8.73;;;;;;;;;;5011601;28;20235;-80
2022/10/14 05:05:05;;;;;;;11.73;7.47;;;;;;;;;;5011814;28;20550;-80
2022/10/14 05:07:32;;;;;;;10.70;7.37;;;;;;;;;;5011278;28;20314;-81
2022/10/14 05:10:00;;;;;;;10.00;7.77;;;;;;;;;;5011763;28;20667;-80
2022/10/14 05:12:29;;;;;;;9.83;7.87;;;;;;;;;;5023385;28;20321;-82
2022/10/14 05:14:56;;;;;;;9.73;8.10;;;;;;;;;;5031314;28;20223;-80
2022/10/14 05:17:23;;;;;;;10.00;7.77;;;;;;;;;;5030505;28;20237;-81
2022/10/14 05:19:50;;;;;;;12.90;8.77;;;;;;;;;;5031096;28;20198;-81
2022/10/14 05:22:18;;;;;;;13.77;9.13;;;;;;;;;;5030932;28;20230;-82
2022/10/14 05:24:45;;;;;;;11.23;8.53;;;;;;;;;;5031629;28;20211;-82
2022/10/14 05:27:12;;;;;;;11.77;9.57;;;;;;;;;;5030717;28;20213;-82
2022/10/14 05:29:40;;;;;;;12.93;9.30;;;;;;;;;;5031508;28;20207;-83
2022/10/14 05:32:08;;;;;;;10.83;9.30;;;;;;;;;;5033594;28;20226;-82
2022/10/14 05:34:35;;;;;;;14.63;10.07;;;;;;;;;;5035655;28;20210;-83
2022/10/14 05:37:02;;;;;;;12.20;9.30;;;;;;;;;;5035210;28;20222;-83
2022/10/14 05:39:29;;;;;;;11.40;9.57;;;;;;;;;;5035425;28;20541;-82
2022/10/14 05:41:56;;;;;;;13.63;10.77;;;;;;;;;;5040404;28;20234;-82
2022/10/14 05:44:24;;;;;;;13.17;10.27;;;;;;;;;;5036677;28;20223;-82
2022/10/14 05:46:52;;;;;;;12.07;9.70;;;;;;;;;;5037423;28;20218;-82
2022/10/14 05:49:19;;;;;;;12.57;9.83;;;;;;;;;;5035719;28;20239;-83
2022/10/14 05:51:46;;;;;;;11.03;9.63;;;;;;;;;;5035379;28;20322;-83
2022/10/14 05:54:14;;;;;;;14.20;10.47;;;;;;;;;;5034836;28;20239;-83
2022/10/14 05:56:41;;;;;;;20.27;10.70;;;;;;;;;;5029706;28;20209;-83
2022/10/14 05:59:09;;;;;;;14.67;10.53;;;;;;;;;;5035330;28;20230;-82
2022/10/14 06:01:37;;;;;;;11.40;9.17;;;;;;;;;;5034659;28;20629;-83
2022/10/14 06:04:05;;;;;;;13.03;10.40;;;;;;;;;;5028846;28;20304;-82
2022/10/14 06:06:33;;;;;;;13.63;9.57;;;;;;;;;;5014785;28;20595;-83
2022/10/14 06:09:00;;;;;;;11.00;9.50;;;;;;;;;;5014318;28;20246;-82
2022/10/14 06:11:27;;;;;;;12.87;9.67;;;;;;;;;;5014880;28;20235;-83
2022/10/14 06:13:54;;;;;;;13.30;10.40;;;;;;;;;;5032438;28;20230;-83
2022/10/14 06:16:22;;;;;;;14.33;10.67;;;;;;;;;;5043424;28;20215;-82
2022/10/14 06:18:49;;;;;;;14.33;9.80;;;;;;;;;;5035189;28;20230;-82
2022/10/14 06:21:17;;;;;;;14.83;10.23;;;;;;;;;;5036052;28;20218;-83
2022/10/14 06:23:44;;;;;;;15.40;9.57;;;;;;;;;;5035892;28;20237;-83
2022/10/14 06:26:11;;;;;;;15.10;9.73;;;;;;;;;;5052747;28;20198;-83
2022/10/14 06:28:38;;;;;;;14.67;9.27;;;;;;;;;;5051670;28;20227;-83
2022/10/14 06:31:06;;;;;;;15.97;9.80;;;;;;;;;;5046749;28;20231;-83
2022/10/14 06:33:33;;;;;;;12.57;9.50;;;;;;;;;;5035933;28;20235;-82
2022/10/14 06:36:02;;;;;;;13.07;9.70;;;;;;;;;;5047298;28;20202;-83
2022/10/14 06:38:30;;;;;;;12.70;9.63;;;;;;;;;;5062275;28;20218;-83
2022/10/14 06:40:57;;;;;;;15.43;11.13;;;;;;;;;;5058135;28;20222;-83
2022/10/14 06:43:25;;;;;;;14.60;11.13;;;;;;;;;;5034834;28;20231;-83
2022/10/14 06:45:54;;;;;;;14.80;10.60;;;;;;;;;;5035384;28;20191;-83
2022/10/14 06:48:21;;;;;;;14.60;10.63;;;;;;;;;;5035759;28;20601;-83
2022/10/14 06:50:48;;;;;;;13.93;11.20;;;;;;;;;;5035204;28;20329;-83
2022/10/14 06:53:15;;;;;;;18.27;10.83;;;;;;;;;;5033866;28;20254;-83
2022/10/14 06:55:45;;;;;;;15.70;10.90;;;;;;;;;;5034749;28;20202;-83
2022/10/14 06:58:12;;;;;;;16.87;12.43;;;;;;;;;;5034174;28;20230;-83
2022/10/14 07:00:39;;;;;;;15.00;11.47;;;;;;;;;;5034608;28;20308;-83
2022/10/14 07:03:06;;;;;;;17.63;12.10;;;;;;;;;;5033608;28;20235;-83
2022/10/14 07:05:34;;;;;;;17.07;12.37;;;;;;;;;;5034435;28;20694;-83
2022/10/14 07:08:01;;;;;;;19.03;12.93;;;;;;;;;;5033495;28;20238;-83
2022/10/14 07:10:28;;;;;;;17.07;11.63;;;;;;;;;;5034103;28;20214;-83
2022/10/14 07:12:57;;;;;;;16.87;11.37;;;;;;;;;;5033451;28;20714;-84
2022/10/14 07:15:24;;;;;;;19.30;12.63;;;;;;;;;;5033745;28;20693;-82
2022/10/14 07:17:51;;;;;;;17.33;11.53;;;;;;;;;;5032868;28;20238;-83
2022/10/14 07:20:19;;;;;;;18.50;13.17;;;;;;;;;;5032558;28;20207;-82
2022/10/14 07:22:47;;;;;;;18.23;12.43;;;;;;;;;;5033224;28;20238;-82
2022/10/14 07:25:14;;;;;;;19.07;12.90;;;;;;;;;;5033669;28;20210;-83
2022/10/14 07:27:41;;;;;;;15.47;11.63;;;;;;;;;;5032462;28;20330;-82
2022/10/14 07:30:10;;;;;;;17.47;12.30;;;;;;;;;;5033474;28;20194;-82
2022/10/14 07:32:38;;;;;;;18.27;12.87;;;;;;;;;;5033021;28;20230;-82
2022/10/14 07:35:05;;;;;;;19.77;13.93;;;;;;;;;;5033484;28;20207;-83
2022/10/14 07:37:32;;;;;;;20.73;13.90;;;;;;;;;;5032772;28;20233;-82
2022/10/14 07:39:59;;;;;;;20.17;12.33;;;;;;;;;;5032812;28;20202;-82
2022/10/14 07:42:26;;;;;;;21.50;13.83;;;;;;;;;;5030552;28;20718;-83
2022/10/14 07:44:54;;;;;;;19.50;13.90;;;;;;;;;;5031716;28;20199;-83
2022/10/14 07:47:22;;;;;;;19.57;14.43;;;;;;;;;;5032255;28;20711;-84
2022/10/14 07:49:49;;;;;;;21.40;15.57;;;;;;;;;;5022742;28;20236;-83
2022/10/14 07:52:18;;;;;;;23.87;15.60;;;;;;;;;;5028760;28;20598;-84
2022/10/14 07:54:46;;;;;;;21.90;14.43;;;;;;;;;;5031388;28;20285;-83
2022/10/14 07:57:13;;;;;;;19.83;12.70;;;;;;;;;;5031612;28;20195;-82
2022/10/14 07:59:40;;;;;;;17.53;13.67;;;;;;;;;;5032173;28;20202;-83
2022/10/14 08:02:08;;;;;;;17.47;13.97;;;;;;;;;;5030524;28;20706;-82
2022/10/14 08:04:36;;;;;;;20.00;12.17;;;;;;;;;;5032094;28;20198;-83
2022/10/14 08:07:03;;;;;;;21.60;13.03;;;;;;;;;;5031354;28;20636;-83
2022/10/14 08:09:31;;;;;;;19.07;13.33;;;;;;;;;;5031360;28;20253;-83
2022/10/14 08:11:58;;;;;;;17.87;14.10;;;;;;;;;;5031174;28;20227;-82
2022/10/14 08:14:25;;;;;;;23.10;14.17;;;;;;;;;;5032010;28;20194;-83
2022/10/14 08:16:52;;;;;;;20.67;14.30;;;;;;;;;;5039388;28;20199;-84
2022/10/14 08:19:20;;;;;;;26.90;14.90;;;;;;;;;;5031046;28;20233;-83
2022/10/14 08:21:49;;;;;;;17.10;13.27;;;;;;;;;;5043229;28;20306;-84
2022/10/14 08:24:16;;;;;;;19.27;12.50;;;;;;;;;;5018814;28;20238;-83
2022/10/14 08:26:49;;;;;;;15.57;12.20;;;;;;;;;;5031796;28;20683;-84
2022/10/14 08:29:17;;;;;;;14.17;10.60;;;;;;;;;;5030991;28;20237;-83
2022/10/14 08:31:44;;;;;;;17.60;11.57;;;;;;;;;;5026686;28;20246;-83
2022/10/14 08:34:11;;;;;;;15.63;10.83;;;;;;;;;;5027176;28;20230;-83
2022/10/14 08:36:38;;;;;;;13.13;10.53;;;;;;;;;;5031871;28;20179;-83
2022/10/14 08:39:07;;;;;;;15.07;10.50;;;;;;;;;;5031318;28;20226;-83
2022/10/14 08:41:44;;;;;;;13.03;9.90;;;;;;;;;;5045292;28;20606;-83
2022/10/14 08:44:15;;;;;;;14.60;9.30;;;;;;;;;;5027721;28;20226;-84
2022/10/14 08:46:44;;;;;;;11.87;10.07;;;;;;;;;;5012241;28;20219;-83
2022/10/14 08:49:14;;;;;;;13.07;10.30;;;;;;;;;;5010729;28;20235;-83
2022/10/14 08:51:42;;;;;;;13.90;9.90;;;;;;;;;;5011935;28;20227;-83
2022/10/14 08:54:15;;;;;;;12.37;10.30;;;;;;;;;;5010989;28;20235;-84
2022/10/14 08:56:43;;;;;;;14.17;9.97;;;;;;;;;;5011632;28;20640;-83
2022/10/14 08:59:13;;;;;;;11.30;8.43;;;;;;;;;;5017788;28;20253;-83
2022/10/14 09:01:44;;;;;;;13.50;9.77;;;;;;;;;;5022962;28;20238;-83
2022/10/14 09:04:14;;;;;;;11.80;8.57;;;;;;;;;;5030710;28;20913;-84
2022/10/14 09:06:43;;;;;;;12.27;8.70;;;;;;;;;;5033397;28;20199;-84
2022/10/14 09:09:14;;;;;;;11.83;9.80;;;;;;;;;;5034518;28;20226;-84
2022/10/14 09:11:44;;;;;;;14.00;9.63;;;;;;;;;;5035439;28;20230;-84
2022/10/14 09:14:14;;;;;;;11.40;9.07;;;;;;;;;;5034624;28;20235;-83
2022/10/14 09:16:44;;;;;;;14.77;9.87;;;;;;;;;;5033653;28;20194;-84
2022/10/14 09:19:15;;;;;;;11.27;8.70;;;;;;;;;;5034136;28;20236;-84
2022/10/14 09:21:44;;;;;;;13.13;9.33;;;;;;;;;;5031949;28;20219;-83
2022/10/14 09:24:15;;;;;;;10.93;9.53;;;;;;;;;;5014922;28;20230;-83
2022/10/14 09:26:43;;;;;;;10.40;8.43;;;;;;;;;;5015325;28;20192;-83
2022/10/14 09:29:18;;;;;;;11.67;8.53;;;;;;;;;;5014409;28;20235;-84
2022/10/14 09:31:45;;;;;;;10.00;8.97;;;;;;;;;;5019873;28;20230;-83
2022/10/14 09:34:17;;;;;;;11.93;9.23;;;;;;;;;;5024531;28;20232;-83
2022/10/14 09:36:45;;;;;;;12.13;8.63;;;;;;;;;;5014796;28;20577;-85
2022/10/14 09:39:14;;;;;;;10.97;7.93;;;;;;;;;;5027749;28;20227;-84
2022/10/14 09:41:42;;;;;;;11.00;7.47;;;;;;;;;;5027103;28;20219;-84
2022/10/14 09:44:20;;;;;;;10.33;6.43;;;;;;;;;;5033891;28;20705;-84
2022/10/14 09:46:49;;;;;;;8.53;6.80;;;;;;;;;;5034678;28;20266;-83
2022/10/14 09:49:17;;;;;;;8.83;6.27;;;;;;;;;;5033587;28;20230;-83
2022/10/14 09:51:45;;;;;;;9.90;7.13;;;;;;;;;;5034167;28;20249;-84
2022/10/14 09:54:22;;;;;;;7.63;6.83;;;;;;;;;;5033920;28;20288;-83
2022/10/14 09:56:49;;;;;;;9.43;6.37;;;;;;;;;;5034472;28;20198;-83
2022/10/14 09:59:17;;;;;;;10.40;6.90;;;;;;;;;;5033403;28;20724;-82
2022/10/14 10:01:49;;;;;;;10.47;6.73;;;;;;;;;;5034255;28;20313;-84
2022/10/14 10:04:27;;;;;;;6.83;6.07;;;;;;;;;;5033620;28;20239;-83
2022/10/14 10:06:56;;;;;;;6.07;5.40;;;;;;;;;;5034256;28;20214;-85
2022/10/14 10:09:24;;;;;;;12.43;6.27;;;;;;;;;;5052854;28;20233;-82
2022/10/14 10:11:52;;;;;;;9.23;6.97;;;;;;;;;;5034935;28;20230;-83
2022/10/14 10:14:22;;;;;;;8.30;5.87;;;;;;;;;;5033459;28;20325;-82
2022/10/14 10:16:50;;;;;;;8.13;5.87;;;;;;;;;;5033230;28;20591;-82
2022/10/14 10:19:21;;;;;;;6.70;5.83;;;;;;;;;;5032517;28;20235;-83
2022/10/14 10:21:49;;;;;;;6.20;5.43;;;;;;;;;;5014168;28;20301;-83
2022/10/14 10:24:20;;;;;;;6.60;5.40;;;;;;;;;;5013666;28;20239;-82
2022/10/14 10:26:49;;;;;;;8.60;6.00;;;;;;;;;;5014198;28;20196;-82
2022/10/14 10:29:23;;;;;;;7.13;5.13;;;;;;;;;;5012886;28;20708;-83
2022/10/14 10:31:57;;;;;;;9.10;6.60;;;;;;;;;;5017892;28;20237;-82
2022/10/14 10:34:44;;;;;;;8.60;5.37;;;;;;;;;;5027788;28;20234;-83
2022/10/14 10:37:19;;;;;;;8.27;5.77;;;;;;;;;;5029108;28;20206;-82
2022/10/14 10:39:52;;;;;;;6.37;5.23;;;;;;;;;;5033456;28;20275;-83
2022/10/14 10:42:23;;;;;;;6.47;5.17;;;;;;;;;;5033124;28;20234;-83
2022/10/14 10:44:57;;;;;;;7.37;5.10;;;;;;;;;;5031914;28;20203;-83
2022/10/14 10:47:37;;;;;;;6.93;4.77;;;;;;;;;;5032871;28;20234;-83
2022/10/14 10:50:21;;;;;;;6.03;4.60;;;;;;;;;;5033050;28;20237;-83
2022/10/14 10:52:52;;;;;;;7.17;4.43;;;;;;;;;;5032775;28;20233;-82
2022/10/14 10:55:26;;;;;;;8.50;4.33;;;;;;;;;;5033555;28;20213;-78
2022/10/14 10:58:00;;;;;;;8.47;4.47;;;;;;;;;;5032207;28;20242;-78
2022/10/14 11:00:29;;;;;;;5.03;4.43;;;;;;;;;;5032941;28;20623;-78
2022/10/14 11:03:01;;;;;;;6.73;4.17;;;;;;;;;;5032259;28;20238;-77
2022/10/14 11:05:48;;;;;;;4.37;3.97;;;;;;;;;;5032720;28;20215;-77
2022/10/14 11:14:07;;;;;;;5.80;3.73;;;;;;;;;;5031545;28;20245;-78
2022/10/14 11:16:38;;;;;;;4.70;3.57;;;;;;;;;;5032534;28;20647;-78
2022/10/14 11:19:08;;;;;;;7.70;3.67;;;;;;;;;;5030921;28;20705;-78
2022/10/14 11:21:40;;;;;;;6.00;3.07;;;;;;;;;;5024667;28;20624;-79
2022/10/14 11:24:10;;;;;;;7.30;3.23;;;;;;;;;;5031709;28;20233;-79
2022/10/14 11:26:58;;;;;;;6.40;3.43;;;;;;;;;;5031212;28;20238;-77
2022/10/14 11:29:36;;;;;;;4.37;2.87;;;;;;;;;;5031366;28;20601;-79
2022/10/14 11:32:08;;;;;;;5.60;3.70;;;;;;;;;;5031547;28;20321;-78
2022/10/14 11:34:42;;;;;;;4.73;3.43;;;;;;;;;;5032240;28;20221;-79
2022/10/14 11:37:15;;;;;;;5.23;3.20;;;;;;;;;;5031499;28;20260;-79
2022/10/14 11:39:46;;;;;;;7.37;3.83;;;;;;;;;;5030774;28;20211;-78
2022/10/14 11:42:23;;;;;;;5.07;3.47;;;;;;;;;;5030826;28;20253;-79
2022/10/14 11:44:55;;;;;;;4.70;3.50;;;;;;;;;;5032047;28;20208;-77
2022/10/14 11:47:24;;;;;;;5.93;3.57;;;;;;;;;;5030472;28;20241;-78
2022/10/14 11:49:54;;;;;;;6.23;4.00;;;;;;;;;;5025957;28;20314;-76
2022/10/14 11:52:24;;;;;;;5.03;3.50;;;;;;;;;;5031573;28;20238;-76
2022/10/14 11:54:54;;;;;;;5.60;4.10;;;;;;;;;;5030806;28;20207;-77
2022/10/14 11:57:25;;;;;;;5.90;4.03;;;;;;;;;;5031365;28;20234;-78
2022/10/14 11:59:58;;;;;;;5.73;4.23;;;;;;;;;;5031383;28;20194;-78
2022/10/14 12:02:30;;;;;;;5.30;4.30;;;;;;;;;;5022977;28;20239;-77
2022/10/14 12:05:00;;;;;;;3.77;3.47;;;;;;;;;;5031591;28;20242;-78
2022/10/14 12:07:30;;;;;;;5.03;4.40;;;;;;;;;;5021645;28;20241;-78
2022/10/14 12:10:00;;;;;;;5.60;4.33;;;;;;;;;;5014440;28;20234;-78
2022/10/14 12:12:28;;;;;;;4.87;3.97;;;;;;;;;;5031292;28;20234;-79
2022/10/14 12:14:58;;;;;;;5.83;4.20;;;;;;;;;;5016262;28;20583;-78
2022/10/14 12:17:29;;;;;;;6.17;4.20;;;;;;;;;;5011130;28;20258;-79
2022/10/14 12:19:57;;;;;;;4.73;3.87;;;;;;;;;;5011737;28;20214;-79
2022/10/14 12:22:26;;;;;;;5.90;3.70;;;;;;;;;;5013332;28;20257;-79
2022/10/14 12:24:54;;;;;;;6.20;3.77;;;;;;;;;;5031402;28;20591;-79
2022/10/14 12:27:22;;;;;;;4.40;4.00;;;;;;;;;;5030915;28;20237;-79
2022/10/14 12:29:50;;;;;;;3.90;3.50;;;;;;;;;;5030129;28;20238;-79
2022/10/14 12:32:23;;;;;;;4.63;3.50;;;;;;;;;;5030427;28;20234;-79
2022/10/14 12:34:52;;;;;;;5.77;3.40;;;;;;;;;;5031013;28;20214;-79
2022/10/14 12:37:49;;;;;;;4.23;3.33;;;;;;;;;;5030481;28;20856;-79
2022/10/14 12:40:22;;;;;;;3.30;2.90;;;;;;;;;;5032109;28;20203;-79
2022/10/14 12:42:57;;;;;;;3.57;3.27;;;;;;;;;;5037339;28;20257;-79
2022/10/14 12:45:25;;;;;;;4.07;3.50;;;;;;;;;;5037948;28;20263;-78
2022/10/14 12:48:03;;;;;;;3.13;2.83;;;;;;;;;;5037017;28;20607;-79
2022/10/14 12:50:31;;;;;;;3.60;2.90;;;;;;;;;;5037573;28;20226;-80
2022/10/14 12:53:00;;;;;;;3.20;3.00;;;;;;;;;;5036906;28;20245;-80
2022/10/14 12:55:29;;;;;;;6.33;2.87;;;;;;;;;;5037507;28;20213;-80
2022/10/14 12:57:57;;;;;;;5.90;3.03;;;;;;;;;;5035753;28;20253;-79
2022/10/14 13:00:32;;;;;;;3.43;2.60;;;;;;;;;;5037513;28;20289;-79
2022/10/14 13:03:00;;;;;;;4.57;3.17;;;;;;;;;;5036684;28;20241;-79
2022/10/14 13:05:32;;;;;;;6.83;3.57;;;;;;;;;;5037485;28;20210;-79
2022/10/14 13:08:10;;;;;;;4.30;3.03;;;;;;;;;;5036499;28;20606;-79
2022/10/14 13:10:47;;;;;;;5.63;3.47;;;;;;;;;;5037707;28;20268;-79
2022/10/14 13:13:33;;;;;;;5.33;3.37;;;;;;;;;;5037082;28;20265;-79
2022/10/14 13:16:00;;;;;;;4.53;3.60;;;;;;;;;;5037165;28;20564;-78
2022/10/14 13:18:34;;;;;;;5.63;2.77;;;;;;;;;;5036510;28;20317;-79
2022/10/14 13:21:04;;;;;;;3.73;3.33;;;;;;;;;;5037146;28;20229;-78
2022/10/14 13:23:35;;;;;;;5.93;3.23;;;;;;;;;;5036508;28;20638;-79
2022/10/14 13:26:10;;;;;;;3.30;3.00;;;;;;;;;;5037256;28;20210;-79
2022/10/14 13:28:41;;;;;;;4.00;3.53;;;;;;;;;;5035146;28;20229;-78
2022/10/14 13:31:12;;;;;;;3.87;3.20;;;;;;;;;;5037211;28;20237;-79
2022/10/14 13:33:42;;;;;;;3.13;2.93;;;;;;;;;;5036761;28;20242;-79
2022/10/14 13:36:15;;;;;;;5.43;3.20;;;;;;;;;;5037584;28;20207;-78
2022/10/14 13:38:44;;;;;;;4.93;3.17;;;;;;;;;;5035891;28;20245;-79
2022/10/14 13:41:15;;;;;;;3.87;3.30;;;;;;;;;;5017181;28;20223;-78
2022/10/14 13:43:43;;;;;;;7.93;3.60;;;;;;;;;;5027488;28;20241;-78
2022/10/14 13:46:14;;;;;;;4.10;3.23;;;;;;;;;;5045449;28;20218;-78
2022/10/14 13:48:43;;;;;;;4.37;3.70;;;;;;;;;;5037190;28;20238;-77
2022/10/14 13:51:25;;;;;;;5.43;3.90;;;;;;;;;;5036632;28;20261;-79
2022/10/14 13:53:52;;;;;;;6.13;3.70;;;;;;;;;;5023359;28;20720;-79
2022/10/14 13:56:21;;;;;;;3.97;3.67;;;;;;;;;;5032333;28;20210;-82
2022/10/14 13:58:48;;;;;;;6.77;3.80;;;;;;;;;;5033225;28;20606;-79
2022/10/14 14:01:17;;;;;;;4.70;4.00;;;;;;;;;;5033634;28;20257;-80
2022/10/14 14:03:45;;;;;;;5.37;3.90;;;;;;;;;;5028822;28;20234;-80
2022/10/14 14:06:14;;;;;;;5.90;3.80;;;;;;;;;;5031424;28;20203;-79
2022/10/14 14:08:47;;;;;;;4.20;3.60;;;;;;;;;;5017411;28;20230;-80
2022/10/14 14:11:17;;;;;;;4.80;4.30;;;;;;;;;;5032893;28;20222;-78
2022/10/14 14:13:47;;;;;;;4.80;4.27;;;;;;;;;;5030743;28;20230;-77
2022/10/14 14:16:18;;;;;;;9.97;4.90;;;;;;;;;;5033468;28;20209;-77
2022/10/14 14:18:51;;;;;;;6.80;4.90;;;;;;;;;;5033157;28;20614;-78
2022/10/14 14:21:21;;;;;;;6.13;4.60;;;;;;;;;;5034971;28;20329;-79
2022/10/14 14:23:53;;;;;;;5.03;4.60;;;;;;;;;;5033070;28;20323;-79
2022/10/14 14:26:20;;;;;;;5.50;4.80;;;;;;;;;;5033500;28;20213;-79
2022/10/14 14:28:48;;;;;;;10.17;5.10;;;;;;;;;;5040704;28;20236;-79
2022/10/14 14:31:16;;;;;;;6.00;4.67;;;;;;;;;;5033501;28;20226;-79
2022/10/14 14:33:44;;;;;;;5.30;4.53;;;;;;;;;;5032983;28;20231;-78
2022/10/14 14:36:12;;;;;;;5.60;5.10;;;;;;;;;;5017248;28;20204;-79
2022/10/14 14:38:46;;;;;;;6.70;4.70;;;;;;;;;;5023568;28;20783;-78
2022/10/14 14:41:18;;;;;;;5.57;5.07;;;;;;;;;;5013231;28;20219;-78
2022/10/14 14:43:46;;;;;;;5.10;4.70;;;;;;;;;;5020191;28;20250;-78
2022/10/14 14:46:18;;;;;;;5.33;4.73;;;;;;;;;;5033108;28;20211;-78
2022/10/14 14:48:45;;;;;;;8.43;4.60;;;;;;;;;;5032572;28;20238;-78
2022/10/14 14:51:13;;;;;;;8.07;5.40;;;;;;;;;;5032670;28;20235;-79
2022/10/14 14:53:40;;;;;;;4.27;3.87;;;;;;;;;;5032692;28;20230;-78